createdAt,value
2018-12-07T00:01:38.885Z,13.17
2018-12-07T00:04:50.997Z,12.47
2018-12-07T00:07:55.799Z,11.80
2018-12-07T00:11:06.761Z,13.70
2018-12-07T00:14:15.012Z,12.40
2018-12-07T00:17:19.014Z,10.57
2018-12-07T00:20:29.708Z,12.73
2018-12-07T00:23:38.116Z,13.87
2018-12-07T00:26:42.211Z,11.67
2018-12-07T00:29:50.882Z,15.40
2018-12-07T00:33:01.885Z,11.00
2018-12-07T00:36:06.147Z,13.07
2018-12-07T00:39:15.208Z,12.23
2018-12-07T00:42:22.319Z,11.50
2018-12-07T00:45:31.273Z,11.70
2018-12-07T00:48:42.284Z,11.07
2018-12-07T00:51:51.213Z,12.33
2018-12-07T00:55:02.151Z,11.73
2018-12-07T00:58:10.937Z,11.47
2018-12-07T01:01:21.898Z,10.73
2018-12-07T01:04:30.057Z,12.03
2018-12-07T01:07:38.303Z,10.47
2018-12-07T01:10:47.368Z,10.57
2018-12-07T01:13:58.233Z,10.00
2018-12-07T01:17:06.415Z,11.03
2018-12-07T01:20:14.601Z,11.07
2018-12-07T01:23:26.639Z,11.60
2018-12-07T01:26:30.840Z,10.20
2018-12-07T01:29:39.573Z,10.70
2018-12-07T01:32:48.676Z,9.13
2018-12-07T01:35:57.645Z,8.47
2018-12-07T01:39:11.574Z,8.90
2018-12-07T01:42:20.708Z,10.10
2018-12-07T01:45:29.351Z,8.57
2018-12-07T01:48:38.428Z,10.00
2018-12-07T01:51:49.037Z,8.43
2018-12-07T01:54:57.233Z,7.67
2018-12-07T01:58:00.648Z,9.13
2018-12-07T02:01:09.716Z,9.27
2018-12-07T02:04:18.584Z,8.47
2018-12-07T02:07:29.440Z,8.63
2018-12-07T02:10:41.802Z,7.70
2018-12-07T02:13:50.589Z,9.13
2018-12-07T02:16:54.668Z,8.53
2018-12-07T02:20:03.630Z,8.60
2018-12-07T02:23:14.392Z,8.50
2018-12-07T02:26:23.436Z,9.27
2018-12-07T02:29:35.500Z,7.77
2018-12-07T02:32:44.398Z,8.30
2018-12-07T02:35:48.629Z,9.27
2018-12-07T02:38:59.335Z,8.83
2018-12-07T02:42:10.252Z,10.53
2018-12-07T02:45:19.358Z,10.40
2018-12-07T02:48:30.213Z,11.57
2018-12-07T02:51:41.244Z,9.77
2018-12-07T02:54:49.636Z,10.53
2018-12-07T02:57:57.873Z,9.40
2018-12-07T03:01:10.213Z,9.87
2018-12-07T03:04:22.457Z,9.17
2018-12-07T03:07:30.685Z,8.40
2018-12-07T03:10:41.684Z,8.53
2018-12-07T03:13:53.830Z,9.03
2018-12-07T03:17:02.842Z,8.97
2018-12-07T03:20:11.792Z,7.13
2018-12-07T03:23:22.781Z,7.43
2018-12-07T03:26:31.784Z,6.43
2018-12-07T03:29:44.025Z,9.83
2018-12-07T03:32:53.049Z,7.83
2018-12-07T03:36:01.222Z,6.93
2018-12-07T03:39:12.105Z,7.07
2018-12-07T03:42:23.031Z,9.87
2018-12-07T03:45:32.101Z,6.17
2018-12-07T03:48:42.936Z,6.33
2018-12-07T03:51:51.879Z,5.33
2018-12-07T03:55:02.782Z,5.20
2018-12-07T03:58:11.953Z,5.13
2018-12-07T04:01:23.009Z,5.27
2018-12-07T04:04:33.925Z,6.13
2018-12-07T04:07:37.317Z,5.20
2018-12-07T04:10:46.293Z,4.20
2018-12-07T04:13:54.692Z,4.90
2018-12-07T04:17:03.713Z,4.47
2018-12-07T04:20:12.785Z,3.80
2018-12-07T04:23:23.827Z,3.77
2018-12-07T04:26:27.196Z,4.50
2018-12-07T04:29:35.883Z,5.43
2018-12-07T04:32:46.757Z,3.47
2018-12-07T04:35:55.585Z,3.93
2018-12-07T04:39:06.521Z,3.63
2018-12-07T04:42:18.289Z,3.03
2018-12-07T04:45:27.366Z,4.20
2018-12-07T04:48:38.096Z,2.60
2018-12-07T04:51:48.970Z,3.17
2018-12-07T04:58:03.757Z,2.57
2018-12-07T05:01:14.698Z,3.20
2018-12-07T05:04:25.608Z,2.47
2018-12-07T05:07:34.578Z,2.60
2018-12-07T05:10:45.568Z,2.60
2018-12-07T05:13:56.345Z,2.80
2018-12-07T05:17:04.511Z,2.80
2018-12-07T05:20:13.525Z,2.13
2018-12-07T05:23:22.593Z,2.57
2018-12-07T05:26:26.792Z,2.40
2018-12-07T05:29:35.378Z,1.83
2018-12-07T05:32:46.424Z,1.93
2018-12-07T05:35:55.476Z,2.20
2018-12-07T05:39:07.571Z,1.70
2018-12-07T05:42:18.329Z,1.70
2018-12-07T05:45:29.233Z,2.20
2018-12-07T05:48:37.984Z,1.80
2018-12-07T05:51:46.853Z,1.70
2018-12-07T05:54:55.609Z,2.00
2018-12-07T05:58:04.564Z,1.60
2018-12-07T06:01:13.585Z,1.67
2018-12-07T06:04:24.424Z,1.60
2018-12-07T06:07:32.569Z,1.60
2018-12-07T06:10:43.416Z,1.73
2018-12-07T06:13:54.224Z,1.80
2018-12-07T06:16:58.324Z,1.30
2018-12-07T06:20:07.009Z,1.83
2018-12-07T06:23:17.833Z,2.00
2018-12-07T06:26:22.004Z,1.80
2018-12-07T06:29:32.692Z,2.03
2018-12-07T06:32:43.629Z,1.40
2018-12-07T06:35:51.805Z,3.23
2018-12-07T06:39:00.677Z,2.00
2018-12-07T06:42:11.589Z,1.50
2018-12-07T06:45:20.672Z,1.50
2018-12-07T06:48:31.481Z,2.43
2018-12-07T06:51:42.456Z,1.60
2018-12-07T06:54:51.528Z,1.57
2018-12-07T06:57:59.713Z,2.70
2018-12-07T07:01:08.696Z,2.03
2018-12-07T07:04:17.725Z,1.87
2018-12-07T07:07:22.062Z,1.90
2018-12-07T07:10:32.663Z,2.10
2018-12-07T07:13:41.757Z,2.43
2018-12-07T07:16:50.704Z,2.60
2018-12-07T07:20:04.987Z,3.03
2018-12-07T07:23:13.348Z,3.40
2018-12-07T07:26:22.325Z,2.67
2018-12-07T07:29:34.433Z,3.00
2018-12-07T07:32:43.425Z,2.57
2018-12-07T07:35:52.158Z,2.63
2018-12-07T07:39:01.077Z,4.30
2018-12-07T07:42:12.037Z,2.50
2018-12-07T07:45:21.081Z,2.87
2018-12-07T07:48:29.970Z,2.70
2018-12-07T07:51:42.172Z,3.00
2018-12-07T07:54:51.189Z,3.60
2018-12-07T07:57:55.269Z,3.00
2018-12-07T08:01:06.178Z,3.20
2018-12-07T08:04:15.165Z,4.23
2018-12-07T08:07:24.132Z,2.60
2018-12-07T08:10:34.989Z,3.00
2018-12-07T08:13:45.885Z,2.60
2018-12-07T08:16:49.301Z,3.00
2018-12-07T08:19:58.025Z,2.80
2018-12-07T08:23:14.716Z,4.57
2018-12-07T08:26:14.324Z,3.20
2018-12-07T08:29:26.749Z,2.53
2018-12-07T08:32:37.625Z,2.30
2018-12-07T08:35:46.637Z,2.60
2018-12-07T08:38:54.805Z,2.40
2018-12-07T08:42:06.952Z,2.30
2018-12-07T08:45:17.674Z,1.97
2018-12-07T08:48:29.793Z,2.03
2018-12-07T08:51:40.701Z,2.00
2018-12-07T08:54:48.911Z,1.80
2018-12-07T08:57:53.180Z,1.70
2018-12-07T09:01:04.075Z,1.80
2018-12-07T09:04:14.953Z,1.60
2018-12-07T09:07:24.011Z,1.70
2018-12-07T09:10:35.081Z,1.60
2018-12-07T09:13:43.547Z,1.50
2018-12-07T09:16:47.755Z,1.40
2018-12-07T09:19:58.412Z,1.97
2018-12-07T09:23:09.381Z,1.37
2018-12-07T09:26:12.761Z,2.43
2018-12-07T09:29:26.309Z,1.60
2018-12-07T09:32:35.192Z,1.50
2018-12-07T09:35:44.099Z,1.60
2018-12-07T09:38:52.974Z,2.10
2018-12-07T09:42:02.056Z,2.63
2018-12-07T09:45:13.037Z,2.27
2018-12-07T09:48:17.221Z,2.70
2018-12-07T09:51:25.898Z,3.47
2018-12-07T09:54:38.125Z,4.83
2018-12-07T09:57:46.332Z,3.23
2018-12-07T10:00:57.067Z,3.10
2018-12-07T10:04:07.968Z,3.20
2018-12-07T10:07:17.024Z,3.70
2018-12-07T10:10:27.899Z,3.10
2018-12-07T10:13:36.968Z,4.00
2018-12-07T10:16:45.196Z,4.30
2018-12-07T10:19:57.312Z,3.70
2018-12-07T10:23:08.172Z,4.67
2018-12-07T10:26:17.105Z,4.10
2018-12-07T10:29:27.938Z,4.73
2018-12-07T10:32:39.000Z,4.83
2018-12-07T10:35:42.292Z,3.80
2018-12-07T10:38:53.032Z,4.27
2018-12-07T10:42:03.876Z,5.10
2018-12-07T10:45:14.865Z,4.50
2018-12-07T10:48:23.841Z,5.03
2018-12-07T10:51:31.987Z,6.10
2018-12-07T10:54:42.940Z,4.97
2018-12-07T10:57:52.016Z,4.87
2018-12-07T11:01:08.544Z,8.07
2018-12-07T11:04:26.528Z,6.40
2018-12-07T11:07:40.736Z,5.47
2018-12-07T11:10:56.002Z,6.33
2018-12-07T11:14:10.934Z,6.03
2018-12-07T11:17:24.755Z,5.37
2018-12-07T11:32:07.552Z,5.50
2018-12-07T11:35:18.080Z,5.93
2018-12-07T11:38:30.129Z,6.43
2018-12-07T11:41:43.348Z,5.27
2018-12-07T11:44:52.195Z,6.53
2018-12-07T11:48:00.948Z,4.80
2018-12-07T11:51:13.316Z,3.63
2018-12-07T11:54:25.965Z,4.97
2018-12-07T11:57:35.049Z,3.67
2018-12-07T12:00:44.151Z,5.10
2018-12-07T12:03:53.101Z,6.27
2018-12-07T12:06:57.280Z,4.60
2018-12-07T12:10:06.103Z,5.07
2018-12-07T12:13:16.964Z,4.43
2018-12-07T12:16:25.505Z,7.07
2018-12-07T12:19:36.330Z,5.63
2018-12-07T12:22:45.404Z,5.30
2018-12-07T12:25:54.522Z,7.07
2018-12-07T12:29:05.564Z,4.97
2018-12-07T12:32:16.498Z,5.67
2018-12-07T12:35:28.644Z,5.87
2018-12-07T12:38:36.895Z,4.97
2018-12-07T12:41:47.868Z,4.03
2018-12-07T12:44:56.945Z,4.13
2018-12-07T12:48:00.326Z,6.10
2018-12-07T12:51:10.913Z,4.43
2018-12-07T12:54:19.869Z,6.87
2018-12-07T12:57:23.952Z,4.63
2018-12-07T13:00:34.693Z,4.17
2018-12-07T13:03:46.776Z,5.60
2018-12-07T13:06:54.983Z,4.60
2018-12-07T13:10:04.577Z,4.63
2018-12-07T13:13:16.976Z,4.57
2018-12-07T13:16:25.232Z,4.47
2018-12-07T13:19:36.084Z,3.63
2018-12-07T13:22:45.140Z,4.23
2018-12-07T13:25:54.089Z,3.27
2018-12-07T13:29:03.116Z,4.47
2018-12-07T13:32:15.977Z,5.40
2018-12-07T13:35:28.049Z,3.57
2018-12-07T13:38:40.149Z,3.37
2018-12-07T13:41:52.937Z,3.50
2018-12-07T13:45:06.120Z,3.17
2018-12-07T13:48:14.600Z,2.93
2018-12-07T13:51:25.502Z,4.57
2018-12-07T13:54:37.735Z,4.90
2018-12-07T13:57:46.672Z,3.37
2018-12-07T14:00:57.687Z,2.40
2018-12-07T14:04:08.400Z,4.07
2018-12-07T14:07:16.646Z,2.33
2018-12-07T14:10:27.351Z,3.17
2018-12-07T14:13:35.620Z,4.07
2018-12-07T14:16:44.800Z,2.33
2018-12-07T14:19:53.744Z,2.40
2018-12-07T14:23:04.721Z,2.90
2018-12-07T14:26:13.699Z,3.27
2018-12-07T14:29:24.445Z,2.20
2018-12-07T14:32:35.609Z,2.37
2018-12-07T14:35:43.960Z,2.30
2018-12-07T14:38:57.830Z,2.10
2018-12-07T14:42:08.739Z,2.73
2018-12-07T14:45:17.687Z,2.13
2018-12-07T14:48:26.904Z,1.83
2018-12-07T14:51:37.814Z,2.17
2018-12-07T14:54:46.930Z,1.80
2018-12-07T14:57:57.747Z,1.60
2018-12-07T15:01:08.716Z,2.00
2018-12-07T15:04:19.556Z,2.40
2018-12-07T15:07:28.285Z,1.90
2018-12-07T15:10:39.469Z,2.53
2018-12-07T15:13:50.314Z,1.73
2018-12-07T15:16:59.657Z,2.40
2018-12-07T15:20:10.243Z,1.60
2018-12-07T15:23:22.249Z,2.47
2018-12-07T15:26:31.616Z,2.90
2018-12-07T15:29:42.460Z,1.87
2018-12-07T15:32:50.960Z,1.60
2018-12-07T15:36:00.338Z,2.13
2018-12-07T15:39:11.119Z,1.70
2018-12-07T15:42:22.130Z,2.00
2018-12-07T15:45:33.242Z,1.70
2018-12-07T15:48:44.470Z,1.63
2018-12-07T15:51:55.279Z,1.87
2018-12-07T15:55:06.392Z,2.03
2018-12-07T15:58:15.446Z,2.10
2018-12-07T16:01:26.558Z,2.13
2018-12-07T16:04:37.597Z,1.90
2018-12-07T16:07:46.704Z,2.77
2018-12-07T16:10:58.939Z,1.77
2018-12-07T16:14:08.113Z,1.80
2018-12-07T16:17:17.349Z,2.13
2018-12-07T16:20:26.009Z,4.17
2018-12-07T16:23:34.385Z,3.13
2018-12-07T16:26:43.342Z,2.00
2018-12-07T16:29:54.122Z,1.70
2018-12-07T16:33:05.073Z,1.70
2018-12-07T16:36:14.154Z,1.70
2018-12-07T16:39:24.863Z,1.60
2018-12-07T16:42:35.648Z,3.80
2018-12-07T16:45:44.824Z,1.57
2018-12-07T16:48:54.008Z,1.70
2018-12-07T16:52:04.764Z,1.40
2018-12-07T16:55:15.390Z,1.30
2018-12-07T16:58:24.427Z,2.30
2018-12-07T17:01:35.168Z,3.10
2018-12-07T17:04:45.965Z,2.53
2018-12-07T17:07:50.260Z,1.40
2018-12-07T17:10:59.294Z,1.83
2018-12-07T17:14:10.033Z,1.83
2018-12-07T17:17:18.342Z,1.50
2018-12-07T17:20:27.111Z,1.30
2018-12-07T17:23:38.313Z,2.30
2018-12-07T17:26:47.374Z,1.20
2018-12-07T17:29:57.972Z,1.57
2018-12-07T17:33:09.056Z,2.80
2018-12-07T17:36:18.234Z,1.40
2018-12-07T17:42:33.768Z,1.30
2018-12-07T17:45:42.699Z,1.63
2018-12-07T17:48:51.764Z,1.90
2018-12-07T17:52:00.307Z,2.47
2018-12-07T17:55:09.286Z,1.47
2018-12-07T17:58:18.484Z,1.60
2018-12-07T18:01:29.271Z,1.50
2018-12-07T18:04:41.318Z,1.67
2018-12-07T18:07:45.488Z,1.50
2018-12-07T18:10:56.240Z,1.73
2018-12-07T18:14:05.204Z,1.93
2018-12-07T18:17:13.405Z,1.50
2018-12-07T18:20:24.438Z,2.37
2018-12-07T18:23:33.201Z,1.20
2018-12-07T18:26:42.124Z,1.70
2018-12-07T18:29:53.277Z,1.60
2018-12-07T18:33:04.010Z,1.70
2018-12-07T18:36:32.368Z,1.57
2018-12-07T18:39:45.927Z,1.20
2018-12-07T18:42:58.057Z,1.47
2018-12-07T18:46:07.168Z,1.80
2018-12-07T18:49:16.235Z,1.40
2018-12-07T18:52:27.231Z,1.70
2018-12-07T18:55:36.268Z,1.63
2018-12-07T18:58:45.023Z,1.33
2018-12-07T19:01:56.096Z,2.43
2018-12-07T19:05:05.067Z,1.40
2018-12-07T19:08:14.013Z,1.17
2018-12-07T19:11:24.970Z,1.50
2018-12-07T19:14:35.900Z,1.70
2018-12-07T19:17:44.945Z,1.70
2018-12-07T19:20:55.758Z,1.60
2018-12-07T19:24:06.643Z,1.10
2018-12-07T19:27:11.092Z,2.10
2018-12-07T19:30:22.059Z,1.13
2018-12-07T19:33:32.988Z,1.10
2018-12-07T19:36:42.341Z,1.13
2018-12-07T19:39:53.134Z,1.43
2018-12-07T19:43:08.395Z,1.00
2018-12-07T19:46:12.521Z,1.00
2018-12-07T19:49:23.436Z,0.90
2018-12-07T19:52:32.617Z,1.00
2018-12-07T19:55:41.368Z,0.90
2018-12-07T19:58:52.329Z,1.00
2018-12-07T20:02:04.553Z,1.00
2018-12-07T20:05:15.732Z,1.07
2018-12-07T20:08:19.813Z,1.50
2018-12-07T20:11:28.557Z,1.10
2018-12-07T20:14:39.475Z,1.13
2018-12-07T20:17:48.310Z,2.87
2018-12-07T20:20:59.087Z,1.27
2018-12-07T20:24:08.152Z,1.10
2018-12-07T20:27:17.387Z,1.33
2018-12-07T20:30:28.454Z,1.77
2018-12-07T20:33:37.712Z,1.47
2018-12-07T20:36:46.252Z,1.43
2018-12-07T20:39:56.985Z,3.63
2018-12-07T20:43:05.147Z,1.40
2018-12-07T20:46:14.048Z,1.70
2018-12-07T20:49:24.853Z,1.47
2018-12-07T20:52:37.140Z,2.50
2018-12-07T20:55:45.776Z,2.87
2018-12-07T20:58:55.924Z,2.00
2018-12-07T21:02:06.842Z,2.00
2018-12-07T21:05:25.270Z,1.67
2018-12-07T21:08:43.262Z,1.53
2018-12-07T21:11:57.593Z,0.93
2018-12-07T21:15:10.130Z,1.00
2018-12-07T21:18:18.944Z,1.20
2018-12-07T21:21:30.086Z,1.13
2018-12-07T21:24:40.935Z,1.20
2018-12-07T21:27:49.944Z,1.40
2018-12-07T21:31:00.732Z,1.40
2018-12-07T21:34:14.312Z,1.53
2018-12-07T21:37:23.946Z,1.60
2018-12-07T21:40:36.429Z,2.40
2018-12-07T21:43:48.988Z,3.10
2018-12-07T21:46:53.144Z,5.07
2018-12-07T21:50:05.842Z,5.33
2018-12-07T21:53:18.245Z,1.73
2018-12-07T21:56:26.409Z,1.90
2018-12-07T21:59:37.218Z,3.67
2018-12-07T22:02:48.240Z,1.90
2018-12-07T22:05:57.661Z,2.50
2018-12-07T22:09:08.608Z,3.00
2018-12-07T22:12:22.228Z,3.10
2018-12-07T22:15:31.516Z,4.03
2018-12-07T22:18:45.131Z,3.00
2018-12-07T22:21:58.962Z,2.50
2018-12-07T22:25:10.269Z,4.93
2018-12-07T22:28:19.199Z,2.57
2018-12-07T22:31:28.363Z,3.43
2018-12-07T22:34:52.539Z,3.07
2018-12-07T22:38:01.290Z,6.63
2018-12-07T22:41:15.275Z,6.10
2018-12-07T22:44:23.676Z,2.33
2018-12-07T22:47:32.727Z,4.93
2018-12-07T22:50:43.821Z,8.07
2018-12-07T22:53:54.666Z,3.10
2018-12-07T22:57:08.855Z,4.77
2018-12-07T23:00:21.660Z,5.57
2018-12-07T23:03:33.804Z,5.30
2018-12-07T23:06:42.838Z,5.27
2018-12-07T23:09:53.837Z,3.57
2018-12-07T23:13:05.924Z,3.33
2018-12-07T23:16:15.180Z,4.60
2018-12-07T23:19:27.353Z,4.13
2018-12-07T23:22:39.380Z,4.00
2018-12-07T23:25:42.746Z,4.90
2018-12-07T23:28:53.521Z,5.17
2018-12-07T23:32:05.690Z,6.13
2018-12-07T23:35:14.660Z,5.17
2018-12-07T23:38:23.504Z,6.90
2018-12-07T23:41:34.300Z,7.47
2018-12-07T23:44:46.347Z,7.00
2018-12-07T23:47:50.442Z,8.40
2018-12-07T23:51:01.020Z,6.30
2018-12-07T23:54:11.985Z,6.10
2018-12-07T23:57:20.287Z,9.90
